Time;durP1;ratioP1;P1;durP2;ratioP2;P2;SDS_P1;SDS_P2;PMS_P1;PMS_P2;Temp;Humidity;BMP_temperature;BMP_pressure;BME280_temperature;BME280_humidity;BME280_pressure;Samples;Min_cycle;Max_cycle;Signal;HPM_P1;HPM_P2
2022/04/01 00:02:14;;;;;;;33.28;17.23;;;8.50;96.70;;;;;;6255280;28;20072;-85
2022/04/01 00:05:16;;;;;;;35.78;16.63;;;8.50;96.90;;;;;;6256082;28;20099;-85
2022/04/01 00:08:18;;;;;;;40.40;18.13;;;8.50;96.90;;;;;;6251462;28;20054;-86
2022/04/01 00:11:21;;;;;;;29.77;16.52;;;8.50;96.70;;;;;;6240010;28;20065;-83
2022/04/01 00:14:23;;;;;;;37.45;17.67;;;8.50;96.90;;;;;;6256442;28;20115;-86
2022/04/01 00:17:25;;;;;;;35.20;16.23;;;8.50;96.70;;;;;;6258115;28;20045;-85
2022/04/01 00:20:28;;;;;;;34.88;16.70;;;8.50;96.90;;;;;;6256030;28;20056;-85
2022/04/01 00:23:30;;;;;;;35.22;17.30;;;8.60;96.70;;;;;;6257711;28;20053;-85
2022/04/01 00:26:33;;;;;;;37.28;18.88;;;8.60;96.60;;;;;;6257371;28;20180;-87
2022/04/01 00:29:35;;;;;;;33.40;15.82;;;8.70;96.70;;;;;;6256058;28;20049;-87
2022/04/01 00:32:37;;;;;;;35.08;17.20;;;8.60;96.70;;;;;;6253852;28;20095;-86
2022/04/01 00:35:39;;;;;;;35.17;17.35;;;8.70;96.90;;;;;;6244936;28;20541;-86
2022/04/01 00:38:41;;;;;;;37.92;18.20;;;8.80;96.90;;;;;;6256385;28;20049;-85
2022/04/01 00:41:45;;;;;;;36.88;17.40;;;8.70;96.10;;;;;;6248090;28;20120;-85
2022/04/01 00:44:47;;;;;;;36.13;16.80;;;8.60;96.30;;;;;;6235165;28;20567;-86
2022/04/01 00:47:49;;;;;;;36.03;16.33;;;8.50;96.20;;;;;;6256642;28;20057;-87
2022/04/01 00:50:51;;;;;;;37.45;17.52;;;8.50;96.50;;;;;;6255901;28;20076;-86
2022/04/01 00:53:53;;;;;;;34.63;18.63;;;8.50;95.90;;;;;;6252915;28;20056;-86
2022/04/01 00:56:57;;;;;;;32.30;16.23;;;8.40;95.70;;;;;;6255391;28;20042;-85
2022/04/01 00:59:59;;;;;;;32.92;16.90;;;8.30;95.80;;;;;;6250343;28;20191;-86
2022/04/01 01:03:01;;;;;;;37.33;17.30;;;8.30;96.40;;;;;;6250059;28;20053;-86
2022/04/01 01:06:03;;;;;;;30.05;15.55;;;8.30;96.00;;;;;;6249761;28;20105;-85
2022/04/01 01:09:05;;;;;;;32.38;15.57;;;8.20;96.10;;;;;;6249111;28;20037;-86
2022/04/01 01:12:11;;;;;;;35.92;18.35;;;8.20;96.20;;;;;;6249259;28;20199;-86
2022/04/01 01:15:16;;;;;;;33.72;17.35;;;8.30;96.20;;;;;;6249302;28;20065;-86
2022/04/01 01:18:18;;;;;;;36.72;16.85;;;8.30;96.10;;;;;;6262255;23;20388;-85
2022/04/01 01:21:19;;;;;;;33.53;17.15;;;8.30;96.40;;;;;;6232431;28;20052;-85
2022/04/01 01:24:31;;;;;;;33.50;18.48;;;8.40;96.50;;;;;;6234714;28;20136;-85
2022/04/01 01:27:32;;;;;;;34.60;17.80;;;8.40;95.80;;;;;;6244800;28;20038;-83
2022/04/01 01:30:34;;;;;;;36.08;17.15;;;8.40;95.80;;;;;;6230587;28;20049;-84
2022/04/01 01:33:36;;;;;;;33.42;16.60;;;8.30;95.80;;;;;;6229601;28;20050;-85
2022/04/01 01:36:39;;;;;;;35.75;16.67;;;8.20;96.20;;;;;;6229680;28;20119;-82
2022/04/01 01:39:42;;;;;;;36.60;16.50;;;8.30;95.80;;;;;;6230880;28;20135;-84
2022/04/01 01:42:44;;;;;;;41.22;17.60;;;8.20;96.00;;;;;;6227842;28;20041;-84
2022/04/01 01:45:46;;;;;;;31.63;16.77;;;8.20;95.90;;;;;;6236410;28;20046;-84
2022/04/01 01:48:48;;;;;;;33.47;16.83;;;8.10;95.90;;;;;;6229481;28;20045;-83
2022/04/01 01:55:12;;;;;;;38.72;17.80;;;8.10;96.20;;;;;;6228079;28;20045;-85
2022/04/01 01:58:15;;;;;;;39.78;17.88;;;8.20;96.20;;;;;;6229670;28;20061;-85
2022/04/01 02:01:17;;;;;;;34.67;16.98;;;8.20;95.80;;;;;;6203841;28;20057;-84
2022/04/01 02:04:18;;;;;;;34.13;16.85;;;8.20;96.20;;;;;;6206323;28;20042;-81
2022/04/01 02:07:22;;;;;;;35.17;17.45;;;8.20;96.40;;;;;;6211356;28;20046;-84
2022/04/01 02:10:26;;;;;;;37.30;19.40;;;8.30;95.90;;;;;;6205837;28;20043;-85
2022/04/01 02:13:28;;;;;;;33.28;16.33;;;8.30;95.90;;;;;;6204408;28;20516;-84
2022/04/01 02:16:30;;;;;;;34.53;17.25;;;8.30;95.60;;;;;;6233686;28;20046;-85
2022/04/01 02:19:32;;;;;;;36.00;17.77;;;8.30;95.90;;;;;;6239718;28;20141;-85
2022/04/01 02:22:33;;;;;;;35.08;15.85;;;8.20;95.50;;;;;;6229243;28;20041;-85
2022/04/01 02:25:37;;;;;;;32.95;15.57;;;8.20;95.70;;;;;;6227374;28;20069;-84
2022/04/01 02:28:39;;;;;;;32.33;16.38;;;8.20;95.90;;;;;;6227181;28;20092;-83
2022/04/01 02:31:40;;;;;;;32.03;15.35;;;8.30;95.90;;;;;;6227265;28;20046;-83
2022/04/01 02:34:43;;;;;;;42.53;17.98;;;8.30;95.30;;;;;;6249862;28;20634;-83
2022/04/01 02:37:45;;;;;;;33.63;16.88;;;8.20;95.40;;;;;;6253514;28;20049;-85
2022/04/01 02:40:48;;;;;;;33.33;15.27;;;8.10;94.90;;;;;;6253931;28;20046;-81
2022/04/01 02:43:50;;;;;;;29.00;14.85;;;8.00;94.70;;;;;;6240244;28;20056;-84
2022/04/01 02:46:53;;;;;;;30.20;15.95;;;7.90;95.00;;;;;;6237595;28;20407;-84
2022/04/01 02:49:54;;;;;;;28.23;13.02;;;7.90;94.90;;;;;;6251373;28;20045;-83
2022/04/01 02:52:56;;;;;;;26.70;14.60;;;7.90;94.80;;;;;;6254397;28;20045;-85
2022/04/01 02:55:59;;;;;;;33.60;14.98;;;7.80;95.30;;;;;;6253372;28;20210;-85
2022/04/01 02:59:02;;;;;;;33.65;16.73;;;7.80;95.10;;;;;;6252000;28;20045;-85
2022/04/01 03:02:05;;;;;;;30.35;14.40;;;7.80;94.90;;;;;;6252458;28;20042;-85
2022/04/01 03:05:07;;;;;;;30.50;15.77;;;7.80;95.20;;;;;;6267347;28;20109;-81
2022/04/01 03:08:10;;;;;;;35.03;15.80;;;7.80;95.30;;;;;;6268711;28;20045;-84
2022/04/01 03:11:13;;;;;;;38.92;15.15;;;7.80;94.80;;;;;;6253314;28;20048;-83
2022/04/01 03:14:15;;;;;;;28.63;15.75;;;7.90;94.90;;;;;;6250454;28;20046;-84
2022/04/01 03:17:17;;;;;;;30.30;15.05;;;7.90;95.40;;;;;;6243011;28;20056;-84
2022/04/01 03:20:18;;;;;;;26.95;14.73;;;8.00;95.50;;;;;;6251059;28;20093;-83
2022/04/01 03:23:20;;;;;;;29.77;15.55;;;7.90;94.80;;;;;;6252156;28;20055;-83
2022/04/01 03:26:24;;;;;;;30.60;15.90;;;8.00;95.00;;;;;;6250272;28;20713;-87
2022/04/01 03:29:26;;;;;;;30.90;15.45;;;8.00;95.20;;;;;;6250981;28;20052;-85
2022/04/01 03:32:28;;;;;;;33.75;15.25;;;8.00;94.90;;;;;;6251028;28;20132;-87
2022/04/01 03:35:29;;;;;;;25.75;13.80;;;8.00;94.30;;;;;;6250731;28;20128;-85
2022/04/01 03:38:31;;;;;;;28.17;13.93;;;7.90;94.30;;;;;;6250415;28;20057;-86
2022/04/01 03:41:35;;;;;;;33.33;15.80;;;7.80;94.80;;;;;;6250507;28;20041;-84
2022/04/01 03:44:39;;;;;;;29.58;14.73;;;7.80;95.00;;;;;;6243266;28;20042;-86
2022/04/01 03:47:51;;;;;;;27.33;14.63;;;7.80;94.50;;;;;;6241302;28;20045;-87
2022/04/01 03:50:56;;;;;;;26.77;13.25;;;7.80;94.40;;;;;;6250809;28;20140;-86
2022/04/01 03:54:02;;;;;;;28.90;14.43;;;7.70;95.00;;;;;;6250742;28;20046;-85
2022/04/01 03:57:05;;;;;;;28.63;15.73;;;7.80;94.80;;;;;;6251139;28;20060;-85
2022/04/01 04:00:12;;;;;;;24.83;13.20;;;7.80;95.00;;;;;;6249627;28;20053;-86
2022/04/01 04:03:15;;;;;;;25.97;14.17;;;7.90;94.90;;;;;;6253175;28;20080;-82
2022/04/01 04:06:18;;;;;;;28.42;14.55;;;7.90;94.70;;;;;;6230418;28;20049;-86
2022/04/01 04:09:22;;;;;;;28.92;14.70;;;7.90;94.70;;;;;;6225984;28;20056;-86
2022/04/01 04:12:27;;;;;;;29.63;15.93;;;7.80;94.70;;;;;;6227250;28;20073;-85
2022/04/01 04:15:39;;;;;;;29.20;15.43;;;7.80;94.80;;;;;;6235903;28;20480;-85
2022/04/01 04:18:43;;;;;;;25.85;15.02;;;7.80;94.70;;;;;;6245921;28;20042;-84
2022/04/01 04:21:56;;;;;;;30.02;15.82;;;7.80;94.60;;;;;;6250531;28;20123;-86
2022/04/01 04:24:59;;;;;;;28.50;15.15;;;7.80;94.80;;;;;;6251785;28;20041;-86
2022/04/01 04:28:07;;;;;;;30.00;14.55;;;7.90;94.80;;;;;;6233008;28;20049;-84
2022/04/01 04:31:10;;;;;;;30.77;16.52;;;7.80;94.40;;;;;;6228500;28;20046;-84
2022/04/01 04:34:14;;;;;;;30.00;15.80;;;7.70;94.40;;;;;;6232289;28;20061;-83
2022/04/01 04:37:16;;;;;;;28.35;15.48;;;7.70;94.30;;;;;;6234493;28;20142;-84
2022/04/01 04:40:19;;;;;;;31.30;16.40;;;7.70;94.70;;;;;;6224707;28;20069;-83
2022/04/01 04:43:23;;;;;;;30.50;14.70;;;7.70;94.30;;;;;;6226964;28;20042;-84
2022/04/01 04:46:27;;;;;;;31.67;16.52;;;7.70;94.20;;;;;;6234667;28;20147;-82
2022/04/01 04:49:30;;;;;;;25.75;14.45;;;7.70;93.80;;;;;;6230546;28;20664;-85
2022/04/01 04:52:34;;;;;;;25.33;14.73;;;7.60;93.50;;;;;;6230826;28;20104;-83
2022/04/01 04:55:36;;;;;;;25.35;13.98;;;7.50;92.80;;;;;;6232540;28;20145;-83
2022/04/01 04:58:43;;;;;;;23.98;14.07;;;7.40;93.10;;;;;;6231907;28;20069;-84
2022/04/01 05:01:55;;;;;;;27.55;14.95;;;7.30;93.50;;;;;;6232943;28;20126;-84
2022/04/01 05:05:04;;;;;;;25.40;14.35;;;7.20;94.00;;;;;;6232382;28;20045;-83
2022/04/01 05:08:14;;;;;;;27.85;15.30;;;7.30;93.50;;;;;;6231963;28;20050;-83
2022/04/01 05:11:22;;;;;;;24.38;14.57;;;7.30;93.70;;;;;;6232750;28;20038;-84
2022/04/01 05:14:39;;;;;;;26.00;14.98;;;7.20;93.70;;;;;;6231580;28;20061;-85
2022/04/01 05:17:54;;;;;;;27.60;15.05;;;7.30;94.10;;;;;;6250300;28;20071;-84
2022/04/01 05:20:59;;;;;;;27.65;15.50;;;7.30;93.80;;;;;;6230351;28;20537;-86
2022/04/01 05:24:02;;;;;;;28.45;14.43;;;7.30;93.30;;;;;;6231018;28;20117;-86
2022/04/01 05:27:07;;;;;;;27.13;14.45;;;7.20;93.20;;;;;;6230391;28;20050;-85
2022/04/01 05:30:16;;;;;;;24.40;14.27;;;7.20;93.90;;;;;;6229930;28;20139;-84
2022/04/01 05:33:24;;;;;;;27.10;15.63;;;7.20;93.80;;;;;;6237835;28;20092;-83
2022/04/01 05:36:28;;;;;;;22.73;14.13;;;7.20;93.50;;;;;;6234029;28;20072;-84
2022/04/01 05:39:31;;;;;;;25.35;14.63;;;7.30;93.50;;;;;;6231378;28;20690;-85
2022/04/01 05:42:34;;;;;;;25.83;15.25;;;7.60;93.20;;;;;;6254191;28;20584;-87
2022/04/01 05:45:39;;;;;;;24.40;13.20;;;7.30;93.20;;;;;;6245366;28;20579;-83
2022/04/01 05:48:42;;;;;;;24.55;16.15;;;7.20;93.10;;;;;;6227061;28;20116;-86
2022/04/01 05:51:46;;;;;;;20.98;13.13;;;7.20;92.60;;;;;;6229364;28;20506;-85
2022/04/01 05:54:49;;;;;;;23.40;12.88;;;7.10;92.50;;;;;;6229054;28;20121;-84
2022/04/01 05:57:51;;;;;;;24.13;14.63;;;7.10;92.90;;;;;;6229683;28;20056;-85
2022/04/01 06:01:09;;;;;;;21.10;13.57;;;7.10;93.00;;;;;;6228473;28;20042;-86
2022/04/01 06:04:32;;;;;;;27.57;14.20;;;7.20;93.10;;;;;;6228191;28;20046;-85
2022/04/01 06:07:39;;;;;;;24.20;14.63;;;7.10;92.70;;;;;;6229123;28;20093;-86
2022/04/01 06:10:53;;;;;;;22.23;13.63;;;7.20;92.80;;;;;;6228507;28;20054;-84
2022/04/01 06:14:03;;;;;;;23.73;12.60;;;7.20;92.90;;;;;;6235293;28;20164;-86
2022/04/01 06:17:12;;;;;;;25.05;14.80;;;7.20;93.00;;;;;;6233121;28;20076;-86
2022/04/01 06:20:17;;;;;;;22.73;12.07;;;7.30;92.90;;;;;;6243289;28;20045;-86
2022/04/01 06:23:28;;;;;;;20.75;11.93;;;7.40;92.20;;;;;;6252803;28;20099;-84
2022/04/01 06:26:36;;;;;;;19.55;11.98;;;7.40;92.20;;;;;;6232892;28;20131;-85
2022/04/01 06:29:39;;;;;;;19.92;12.05;;;7.30;92.10;;;;;;6226586;28;20125;-85
2022/04/01 06:32:56;;;;;;;21.30;12.90;;;7.40;92.60;;;;;;6226436;28;20514;-85
2022/04/01 06:36:00;;;;;;;28.70;13.85;;;7.30;91.90;;;;;;6227664;28;20054;-85
2022/04/01 06:39:05;;;;;;;21.08;12.75;;;7.30;92.40;;;;;;6226794;28;20113;-85
2022/04/01 06:42:09;;;;;;;19.80;12.85;;;7.30;91.50;;;;;;6192954;28;20064;-85
2022/04/01 06:45:13;;;;;;;19.60;12.02;;;7.30;91.90;;;;;;6208991;28;20500;-85
2022/04/01 06:48:16;;;;;;;20.55;12.63;;;7.30;91.60;;;;;;6210304;28;20054;-84
2022/04/01 06:51:19;;;;;;;21.10;13.32;;;7.30;91.40;;;;;;6180908;28;20129;-84
2022/04/01 06:54:21;;;;;;;19.35;11.55;;;7.20;91.10;;;;;;6180000;28;20053;-83
2022/04/01 06:57:23;;;;;;;20.17;11.77;;;7.20;92.00;;;;;;6180374;28;20231;-84
2022/04/01 07:00:26;;;;;;;21.52;12.20;;;7.40;92.30;;;;;;6180115;28;20073;-84
2022/04/01 07:03:30;;;;;;;17.13;10.70;;;7.60;91.30;;;;;;6182589;28;20061;-84
2022/04/01 07:06:34;;;;;;;19.98;12.10;;;7.40;90.90;;;;;;6179398;28;20050;-82
2022/04/01 07:09:37;;;;;;;17.58;11.25;;;7.30;91.30;;;;;;6180628;28;20057;-83
2022/04/01 07:12:39;;;;;;;17.50;10.55;;;7.60;91.30;;;;;;6178184;28;20409;-84
2022/04/01 07:15:41;;;;;;;17.65;10.20;;;7.40;90.90;;;;;;6198153;28;20064;-84
2022/04/01 07:18:44;;;;;;;17.20;10.25;;;7.40;90.50;;;;;;6225424;23;20057;-84
2022/04/01 07:21:46;;;;;;;18.40;9.55;;;7.40;90.70;;;;;;6225054;28;20128;-83
2022/04/01 07:24:48;;;;;;;18.45;9.98;;;7.50;91.10;;;;;;6225322;28;20125;-82
2022/04/01 07:27:49;;;;;;;21.05;11.02;;;7.50;91.30;;;;;;6226464;28;20050;-82
2022/04/01 07:30:52;;;;;;;17.02;11.73;;;7.60;91.30;;;;;;6226038;28;20057;-84
2022/04/01 07:33:55;;;;;;;14.65;9.45;;;7.70;90.60;;;;;;6223018;28;20042;-84
2022/04/01 07:36:57;;;;;;;21.30;10.93;;;7.70;90.70;;;;;;6223452;28;20048;-82
2022/04/01 07:39:59;;;;;;;16.65;10.38;;;7.70;90.60;;;;;;6223411;28;20836;-83
2022/04/01 07:43:01;;;;;;;13.15;8.63;;;7.70;91.00;;;;;;6224999;28;20048;-82
2022/04/01 07:46:03;;;;;;;16.90;9.82;;;7.80;90.70;;;;;;6224040;28;20421;-82
2022/04/01 07:49:06;;;;;;;15.70;9.65;;;7.80;90.30;;;;;;6223132;28;20042;-82
2022/04/01 07:52:09;;;;;;;15.73;8.82;;;7.80;90.40;;;;;;6223828;28;20061;-82
2022/04/01 07:55:13;;;;;;;17.60;9.43;;;7.80;90.50;;;;;;6225074;28;20396;-83
2022/04/01 07:58:15;;;;;;;16.08;9.13;;;7.80;90.20;;;;;;6240472;28;20046;-83
2022/04/01 08:01:17;;;;;;;20.58;12.18;;;7.90;91.00;;;;;;6241321;28;20454;-83
2022/04/01 08:04:20;;;;;;;18.38;11.20;;;7.90;90.70;;;;;;6223488;28;20053;-83
2022/04/01 08:07:22;;;;;;;23.42;12.52;;;8.00;90.10;;;;;;6224048;28;20085;-83
2022/04/01 08:10:24;;;;;;;20.20;13.75;;;7.90;90.10;;;;;;6224028;28;20045;-84
2022/04/01 08:13:26;;;;;;;24.77;19.48;;;7.90;89.80;;;;;;6225626;28;20038;-84
2022/04/01 08:16:27;;;;;;;14.52;8.32;;;7.90;90.30;;;;;;6224595;28;20061;-83
2022/04/01 08:19:31;;;;;;;14.85;9.10;;;7.90;90.10;;;;;;6223660;28;20056;-84
2022/04/01 08:22:33;;;;;;;12.07;7.47;;;8.00;90.10;;;;;;6223821;28;20100;-83
2022/04/01 08:25:34;;;;;;;18.05;8.88;;;8.00;89.20;;;;;;6228654;28;20042;-83
2022/04/01 08:28:36;;;;;;;18.35;8.60;;;8.00;89.10;;;;;;6229114;28;20044;-83
2022/04/01 08:31:39;;;;;;;12.05;8.13;;;8.00;89.10;;;;;;6229311;28;20050;-83
2022/04/01 08:34:42;;;;;;;13.68;7.63;;;8.00;88.30;;;;;;6229734;28;20052;-83
2022/04/01 08:37:44;;;;;;;16.67;8.38;;;7.90;87.90;;;;;;6228385;28;20049;-83
2022/04/01 08:40:46;;;;;;;13.35;8.30;;;7.90;89.20;;;;;;6226318;28;20046;-82
2022/04/01 08:43:49;;;;;;;16.65;8.95;;;8.00;90.30;;;;;;6226582;28;20487;-83
2022/04/01 08:46:52;;;;;;;18.05;9.23;;;8.00;90.30;;;;;;6229617;28;20131;-83
2022/04/01 08:49:55;;;;;;;15.15;8.55;;;8.00;88.80;;;;;;6241349;28;20044;-84
2022/04/01 08:52:57;;;;;;;11.25;7.53;;;8.00;89.70;;;;;;6229706;28;20042;-82
2022/04/01 08:56:00;;;;;;;14.57;9.07;;;8.00;88.70;;;;;;6230335;28;20050;-83
2022/04/01 08:59:02;;;;;;;22.67;13.45;;;7.90;88.50;;;;;;6228572;28;20518;-83
2022/04/01 09:02:06;;;;;;;14.95;9.32;;;7.80;89.10;;;;;;6228898;28;20418;-82
2022/04/01 09:05:10;;;;;;;15.55;10.50;;;7.80;89.20;;;;;;6229278;28;20093;-82
2022/04/01 09:08:14;;;;;;;13.18;8.57;;;7.90;89.50;;;;;;6241356;28;20129;-83
2022/04/01 09:11:18;;;;;;;17.75;11.02;;;7.90;88.80;;;;;;6255494;28;20049;-83
2022/04/01 09:14:22;;;;;;;18.30;9.57;;;7.90;89.80;;;;;;6250346;28;20176;-83
2022/04/01 09:17:40;;;;;;;14.80;9.70;;;7.90;89.90;;;;;;6241370;28;20050;-83
2022/04/01 09:20:49;;;;;;;14.18;9.20;;;7.80;89.80;;;;;;6250106;28;20041;-83
2022/04/01 09:23:50;;;;;;;18.70;10.13;;;7.80;90.00;;;;;;6252023;28;20498;-83
2022/04/01 09:26:55;;;;;;;12.07;8.55;;;7.80;90.30;;;;;;6250973;28;20046;-84
2022/04/01 09:29:57;;;;;;;12.35;8.52;;;7.80;90.00;;;;;;6250732;28;20051;-83
2022/04/01 09:33:01;;;;;;;14.90;9.63;;;7.80;89.20;;;;;;6250436;28;20037;-83
2022/04/01 09:36:06;;;;;;;16.40;8.65;;;7.90;90.00;;;;;;6252023;28;20509;-83
2022/04/01 09:39:10;;;;;;;14.40;8.82;;;7.90;90.90;;;;;;6252507;28;20130;-84
2022/04/01 09:42:12;;;;;;;11.60;8.60;;;7.90;90.30;;;;;;6252090;28;20046;-83
2022/04/01 09:45:20;;;;;;;9.80;6.65;;;7.90;89.60;;;;;;6252624;28;20128;-83
2022/04/01 09:48:22;;;;;;;12.05;8.13;;;7.90;90.20;;;;;;6251208;28;20136;-83
2022/04/01 09:51:29;;;;;;;25.40;15.85;;;7.90;89.50;;;;;;6244176;28;20037;-83
2022/04/01 09:54:31;;;;;;;17.52;9.32;;;7.80;89.50;;;;;;6210179;28;20053;-84
2022/04/01 09:57:34;;;;;;;11.82;7.63;;;7.90;90.60;;;;;;6220909;28;20430;-86
2022/04/01 10:00:37;;;;;;;12.38;7.75;;;7.90;90.20;;;;;;6251229;28;20521;-85
2022/04/01 10:03:39;;;;;;;12.80;8.02;;;7.80;89.00;;;;;;6251950;28;20050;-83
2022/04/01 10:06:43;;;;;;;11.93;8.10;;;7.80;87.90;;;;;;6251519;28;20049;-85
2022/04/01 10:09:47;;;;;;;15.10;8.02;;;7.70;89.10;;;;;;6256541;28;20055;-82
2022/04/01 10:12:50;;;;;;;13.25;7.60;;;7.80;89.50;;;;;;6250828;28;20048;-83
2022/04/01 10:15:54;;;;;;;13.48;8.50;;;7.90;88.70;;;;;;6250417;28;20045;-83
2022/04/01 10:19:05;;;;;;;11.45;7.32;;;8.00;88.10;;;;;;6251530;28;20049;-82
2022/04/01 10:22:11;;;;;;;11.75;7.00;;;8.00;87.40;;;;;;6216114;28;20054;-83
2022/04/01 10:25:18;;;;;;;11.15;7.63;;;7.90;87.50;;;;;;6201163;28;20053;-84
2022/04/01 10:28:21;;;;;;;14.82;7.32;;;8.00;88.60;;;;;;6202203;28;20105;-82
2022/04/01 10:31:25;;;;;;;10.18;6.63;;;7.90;87.80;;;;;;6204731;28;20050;-82
2022/04/01 10:34:27;;;;;;;12.65;7.50;;;7.90;88.10;;;;;;6222822;28;20056;-82
2022/04/01 10:37:31;;;;;;;19.52;7.05;;;8.00;89.60;;;;;;6219179;28;20531;-82
2022/04/01 10:40:34;;;;;;;12.10;7.45;;;8.10;88.60;;;;;;6204924;28;20077;-82
2022/04/01 10:43:41;;;;;;;32.80;15.15;;;8.10;86.80;;;;;;6205261;28;20109;-82
2022/04/01 10:46:58;;;;;;;12.57;7.63;;;8.10;87.00;;;;;;6219617;28;20439;-82
2022/04/01 10:53:45;;;;;;;13.38;8.57;;;7.90;87.20;;;;;;6202355;28;20057;-81
2022/04/01 10:56:56;;;;;;;10.57;7.20;;;7.90;88.50;;;;;;6203227;28;20053;-83
2022/04/01 11:00:01;;;;;;;12.10;7.28;;;8.00;88.10;;;;;;6203017;28;20050;-80
2022/04/01 11:03:23;;;;;;;10.95;7.03;;;8.00;87.10;;;;;;6204419;28;20047;-82
2022/04/01 11:06:27;;;;;;;13.23;7.55;;;8.00;86.40;;;;;;6205087;28;20542;-82
2022/04/01 11:09:46;;;;;;;11.07;8.10;;;7.90;87.00;;;;;;6204534;28;20050;-81
2022/04/01 11:12:51;;;;;;;12.02;7.72;;;7.80;87.60;;;;;;6204923;28;20073;-82
2022/04/01 11:16:22;;;;;;;12.18;8.60;;;7.80;88.50;;;;;;6216980;28;20056;-82
2022/04/01 11:19:25;;;;;;;16.30;9.65;;;7.90;90.00;;;;;;6205988;28;20050;-81
2022/04/01 11:22:39;;;;;;;15.07;9.23;;;8.00;90.10;;;;;;6205230;28;20061;-82
2022/04/01 11:25:57;;;;;;;13.98;10.63;;;8.00;89.10;;;;;;6218736;28;20058;-82
2022/04/01 11:29:02;;;;;;;12.82;8.85;;;8.00;89.10;;;;;;6230631;28;20053;-81
2022/04/01 11:32:07;;;;;;;13.13;8.15;;;7.90;89.70;;;;;;6230917;28;20427;-81
2022/04/01 11:35:11;;;;;;;14.43;8.95;;;7.90;89.30;;;;;;6226420;28;20049;-80
2022/04/01 11:38:15;;;;;;;14.40;8.75;;;7.80;89.00;;;;;;6228996;28;20050;-84
2022/04/01 11:41:19;;;;;;;11.10;7.30;;;7.90;88.50;;;;;;6228563;28;20073;-83
2022/04/01 11:44:21;;;;;;;12.93;7.65;;;7.90;88.20;;;;;;6226668;28;20042;-84
2022/04/01 11:47:32;;;;;;;12.75;8.23;;;7.80;89.00;;;;;;6244539;28;20109;-81
2022/04/01 11:50:34;;;;;;;10.73;7.38;;;7.90;89.40;;;;;;6254328;28;20050;-84
2022/04/01 11:53:38;;;;;;;11.70;8.10;;;7.90;88.40;;;;;;6252661;28;20044;-82
2022/04/01 11:56:43;;;;;;;14.50;6.75;;;7.90;87.80;;;;;;6251330;28;20177;-83
2022/04/01 11:59:47;;;;;;;11.23;6.95;;;7.90;88.40;;;;;;6233861;28;20054;-81
2022/04/01 12:02:51;;;;;;;11.60;8.23;;;7.90;87.80;;;;;;6234906;28;20137;-84
2022/04/01 12:08:41;;;;;;;13.27;8.65;;;7.80;88.50;;;;;;6234841;28;20061;-84
2022/04/01 12:09:15;;;;;;;14.20;7.80;;;7.90;88.40;;;;;;6235942;28;20057;-83
2022/04/01 12:12:24;;;;;;;14.25;7.55;;;7.70;87.70;;;;;;6236479;28;20052;-81
2022/04/01 12:15:33;;;;;;;;;;;7.60;87.70;;;;;;6236243;28;20136;-81
2022/04/01 12:18:36;;;;;;;16.00;7.28;;;7.50;87.50;;;;;;6232078;28;19922;-82
2022/04/01 12:21:38;;;;;;;13.40;6.90;;;7.40;88.80;;;;;;6219269;28;20129;-82
2022/04/01 12:24:40;;;;;;;12.80;8.75;;;7.50;88.70;;;;;;6207808;28;20048;-81
2022/04/01 12:27:53;;;;;;;12.57;7.63;;;7.40;88.70;;;;;;6224611;28;20050;-81
2022/04/01 12:30:57;;;;;;;13.55;7.50;;;7.50;88.20;;;;;;6255205;28;20052;-82
2022/04/01 12:33:59;;;;;;;11.27;6.80;;;7.40;87.70;;;;;;6243541;28;20042;-81
2022/04/01 12:37:03;;;;;;;12.98;7.30;;;7.50;88.00;;;;;;6234568;28;20504;-82
2022/04/01 12:40:10;;;;;;;11.80;6.82;;;7.50;88.00;;;;;;6232543;28;20054;-82
2022/04/01 12:43:32;;;;;;;11.52;7.80;;;7.40;88.70;;;;;;6256334;28;20050;-82
2022/04/01 12:46:34;;;;;;;13.73;8.05;;;7.40;89.30;;;;;;6258252;28;20053;-81
2022/04/01 12:49:45;;;;;;;15.32;8.75;;;7.60;90.00;;;;;;6248335;28;20451;-82
2022/04/01 12:52:49;;;;;;;21.13;9.60;;;7.60;88.60;;;;;;6255020;28;20534;-81
2022/04/01 12:55:51;;;;;;;12.85;7.95;;;7.50;88.80;;;;;;6255249;28;20423;-83
2022/04/01 12:58:56;;;;;;;13.75;8.10;;;7.50;88.80;;;;;;6233243;28;20654;-81
2022/04/01 13:02:03;;;;;;;14.07;9.05;;;7.40;88.80;;;;;;6235115;28;20137;-83
2022/04/01 13:05:13;;;;;;;15.85;8.02;;;7.30;89.20;;;;;;6230360;28;20042;-83
2022/04/01 13:08:32;;;;;;;13.43;8.60;;;7.40;89.20;;;;;;6235212;28;20100;-85
2022/04/01 13:11:40;;;;;;;11.43;8.23;;;7.40;89.60;;;;;;6233851;28;20141;-81
2022/04/01 13:18:03;;;;;;;11.60;7.60;;;7.50;89.80;;;;;;6234034;28;20124;-83
2022/04/01 13:25:14;;;;;;;13.55;9.18;;;7.60;90.00;;;;;;6204208;28;20085;-83
2022/04/01 13:28:16;;;;;;;9.80;7.10;;;7.70;90.00;;;;;;6206508;28;20053;-84
2022/04/01 13:31:19;;;;;;;7.97;6.15;;;7.80;88.30;;;;;;6253533;28;20073;-84
2022/04/01 13:34:21;;;;;;;8.20;5.78;;;7.90;88.80;;;;;;6246474;28;20572;-83
2022/04/01 13:37:23;;;;;;;7.38;5.47;;;8.00;86.50;;;;;;6252553;28;20058;-83
2022/04/01 13:40:25;;;;;;;11.63;7.32;;;8.00;85.80;;;;;;6252738;28;20081;-85
2022/04/01 13:43:27;;;;;;;7.32;5.25;;;7.80;86.80;;;;;;6255087;28;20042;-84
2022/04/01 13:46:30;;;;;;;7.47;5.78;;;7.60;86.10;;;;;;6245333;28;20272;-85
2022/04/01 13:49:32;;;;;;;8.77;6.07;;;7.30;88.70;;;;;;6231931;28;20049;-83
2022/04/01 13:52:34;;;;;;;6.70;4.25;;;7.10;89.50;;;;;;6241018;28;20096;-83
2022/04/01 13:55:36;;;;;;;13.73;7.80;;;7.20;90.20;;;;;;6230460;28;20130;-84
2022/04/01 13:58:37;;;;;;;10.13;6.15;;;7.20;90.10;;;;;;6226829;28;20046;-82
2022/04/01 14:01:41;;;;;;;6.95;5.97;;;7.30;90.50;;;;;;6226708;28;20080;-84
2022/04/01 14:04:43;;;;;;;6.70;4.93;;;7.40;89.00;;;;;;6225598;28;20046;-85
2022/04/01 14:07:45;;;;;;;6.75;5.13;;;7.50;89.80;;;;;;6226532;28;20050;-84
2022/04/01 14:10:47;;;;;;;8.27;5.60;;;7.70;88.60;;;;;;6226608;28;20045;-85
2022/04/01 14:13:49;;;;;;;11.25;6.72;;;7.60;88.70;;;;;;6227422;28;20125;-84
2022/04/01 14:16:52;;;;;;;9.90;6.63;;;7.50;89.50;;;;;;6240895;28;20074;-84
2022/04/01 14:19:54;;;;;;;17.33;10.00;;;7.30;90.40;;;;;;6253258;28;20054;-84
2022/04/01 14:22:56;;;;;;;7.93;5.95;;;7.30;90.60;;;;;;6233538;28;20050;-84
2022/04/01 14:26:04;;;;;;;9.98;7.07;;;7.20;90.70;;;;;;6226373;28;20069;-85
2022/04/01 14:32:30;;;;;;;9.52;6.82;;;7.10;91.40;;;;;;6227363;28;20050;-82
2022/04/01 14:35:32;;;;;;;10.52;7.65;;;7.20;91.60;;;;;;6225305;28;20041;-82
2022/04/01 14:38:34;;;;;;;6.85;4.35;;;7.20;91.30;;;;;;6225772;28;20053;-83
2022/04/01 14:41:36;;;;;;;7.45;5.63;;;7.00;90.70;;;;;;6224839;28;20056;-83
2022/04/01 14:44:38;;;;;;;10.05;5.88;;;6.70;91.40;;;;;;6228715;28;20041;-82
2022/04/01 14:47:41;;;;;;;9.40;6.82;;;6.50;92.20;;;;;;6240506;28;20049;-83
2022/04/01 14:50:44;;;;;;;7.50;5.10;;;6.50;92.70;;;;;;6248784;28;20123;-82
2022/04/01 14:53:45;;;;;;;9.27;5.78;;;6.50;92.10;;;;;;6248987;28;20068;-83
2022/04/01 14:56:47;;;;;;;11.07;7.28;;;6.40;92.60;;;;;;6231024;28;20038;-83
2022/04/01 14:59:49;;;;;;;9.88;6.57;;;6.30;93.00;;;;;;6224924;28;20115;-83
2022/04/01 15:02:53;;;;;;;8.70;6.72;;;6.20;93.40;;;;;;6224829;28;20812;-84
2022/04/01 15:05:54;;;;;;;10.02;6.40;;;6.20;93.60;;;;;;6224366;28;20057;-84
2022/04/01 15:08:57;;;;;;;10.05;6.07;;;6.30;93.80;;;;;;6223943;28;20236;-84
2022/04/01 15:11:59;;;;;;;9.88;5.82;;;6.40;93.90;;;;;;6224189;28;20470;-82
2022/04/01 15:15:00;;;;;;;7.97;4.82;;;6.50;93.60;;;;;;6228866;28;20351;-84
2022/04/01 15:18:06;;;;;;;8.32;5.38;;;6.40;93.20;;;;;;6240147;28;20056;-85
2022/04/01 15:21:07;;;;;;;9.35;6.05;;;6.30;92.90;;;;;;6248107;28;20061;-83
2022/04/01 15:24:09;;;;;;;7.28;5.20;;;6.10;93.80;;;;;;6248665;28;20184;-84
2022/04/01 15:27:11;;;;;;;8.35;5.22;;;5.90;94.20;;;;;;6250918;28;20085;-84
2022/04/01 15:30:14;;;;;;;10.93;4.93;;;5.80;94.50;;;;;;6249206;28;20537;-81
2022/04/01 15:33:18;;;;;;;8.43;5.70;;;5.70;94.70;;;;;;6248205;28;20052;-83
2022/04/01 15:36:22;;;;;;;10.55;5.88;;;5.70;94.40;;;;;;6250782;28;20099;-83
2022/04/01 15:39:25;;;;;;;9.32;6.50;;;5.60;94.50;;;;;;6250415;28;20053;-85
2022/04/01 15:42:28;;;;;;;6.90;4.32;;;5.50;94.70;;;;;;6249571;28;20049;-84
2022/04/01 15:45:32;;;;;;;7.40;4.68;;;5.50;93.60;;;;;;6241391;28;20400;-83
2022/04/01 15:48:46;;;;;;;7.50;5.03;;;5.50;93.60;;;;;;6250400;28;20564;-84
2022/04/01 15:51:48;;;;;;;10.68;6.85;;;5.50;93.90;;;;;;6250498;28;20132;-82
2022/04/01 15:58:13;;;;;;;9.57;6.10;;;5.30;93.80;;;;;;6243155;28;20087;-83
2022/04/01 16:01:20;;;;;;;9.75;7.28;;;5.60;94.20;;;;;;6250898;28;20573;-85
2022/04/01 16:04:24;;;;;;;8.98;7.00;;;5.40;94.30;;;;;;6248832;28;20056;-83
2022/04/01 16:07:50;;;;;;;12.57;8.30;;;5.50;94.40;;;;;;6246906;28;20077;-83
2022/04/01 16:10:52;;;;;;;10.15;7.05;;;5.60;94.30;;;;;;6227488;28;20074;-83
2022/04/01 16:13:56;;;;;;;8.80;6.75;;;5.60;94.00;;;;;;6225448;28;20054;-82
2022/04/01 16:16:59;;;;;;;9.55;6.07;;;5.50;93.70;;;;;;6230313;28;20128;-83